sensor_id;sensor_type;location;lat;lon;timestamp;temperature;humidity
2477;DHT22;1249;51.270;6.756;2022-11-15T00:00:08;12.60;99.90
2477;DHT22;1249;51.270;6.756;2022-11-15T00:02:35;12.60;99.90
2477;DHT22;1249;51.270;6.756;2022-11-15T00:05:02;12.70;99.90
2477;DHT22;1249;51.270;6.756;2022-11-15T00:07:28;12.70;99.90
2477;DHT22;1249;51.270;6.756;2022-11-15T00:09:55;12.70;99.90
2477;DHT22;1249;51.270;6.756;2022-11-15T00:12:22;12.60;99.90
2477;DHT22;1249;51.270;6.756;2022-11-15T00:14:49;12.60;99.90
2477;DHT22;1249;51.270;6.756;2022-11-15T00:17:17;12.70;99.90
2477;DHT22;1249;51.270;6.756;2022-11-15T00:19:43;12.70;99.90
2477;DHT22;1249;51.270;6.756;2022-11-15T00:22:10;12.70;99.90
2477;DHT22;1249;51.270;6.756;2022-11-15T00:24:37;12.60;99.90
2477;DHT22;1249;51.270;6.756;2022-11-15T00:27:04;12.70;99.90
2477;DHT22;1249;51.270;6.756;2022-11-15T00:29:30;12.70;99.90
2477;DHT22;1249;51.270;6.756;2022-11-15T00:31:57;12.70;99.90
2477;DHT22;1249;51.270;6.756;2022-11-15T00:34:25;12.80;99.90
2477;DHT22;1249;51.270;6.756;2022-11-15T00:36:52;12.70;99.90
2477;DHT22;1249;51.270;6.756;2022-11-15T00:39:19;12.70;99.90
2477;DHT22;1249;51.270;6.756;2022-11-15T00:41:45;12.70;99.90
2477;DHT22;1249;51.270;6.756;2022-11-15T00:44:12;12.70;99.90
2477;DHT22;1249;51.270;6.756;2022-11-15T00:46:39;12.70;99.90
2477;DHT22;1249;51.270;6.756;2022-11-15T00:49:06;12.80;99.90
2477;DHT22;1249;51.270;6.756;2022-11-15T00:51:34;12.80;99.90
2477;DHT22;1249;51.270;6.756;2022-11-15T00:54:00;12.80;99.90
2477;DHT22;1249;51.270;6.756;2022-11-15T00:56:27;12.90;99.90
2477;DHT22;1249;51.270;6.756;2022-11-15T00:58:54;12.90;99.90
2477;DHT22;1249;51.270;6.756;2022-11-15T01:01:21;12.90;99.90
2477;DHT22;1249;51.270;6.756;2022-11-15T01:03:47;12.90;99.90
2477;DHT22;1249;51.270;6.756;2022-11-15T01:06:14;12.90;99.90
2477;DHT22;1249;51.270;6.756;2022-11-15T01:08:42;12.90;99.90
2477;DHT22;1249;51.270;6.756;2022-11-15T01:11:11;13.00;99.90
2477;DHT22;1249;51.270;6.756;2022-11-15T01:13:38;13.00;99.90
2477;DHT22;1249;51.270;6.756;2022-11-15T01:16:07;13.00;99.90
2477;DHT22;1249;51.270;6.756;2022-11-15T01:18:34;13.00;99.90
2477;DHT22;1249;51.270;6.756;2022-11-15T01:21:05;13.00;99.90
2477;DHT22;1249;51.270;6.756;2022-11-15T01:23:32;13.00;99.90
2477;DHT22;1249;51.270;6.756;2022-11-15T01:26:01;13.00;99.90
2477;DHT22;1249;51.270;6.756;2022-11-15T01:28:30;13.00;99.90
2477;DHT22;1249;51.270;6.756;2022-11-15T01:30:58;13.00;99.90
2477;DHT22;1249;51.270;6.756;2022-11-15T01:33:25;13.00;99.90
2477;DHT22;1249;51.270;6.756;2022-11-15T01:35:51;13.00;99.90
2477;DHT22;1249;51.270;6.756;2022-11-15T01:38:18;13.00;99.90
2477;DHT22;1249;51.270;6.756;2022-11-15T01:40:45;13.00;99.90
2477;DHT22;1249;51.270;6.756;2022-11-15T01:43:21;13.00;99.90
2477;DHT22;1249;51.270;6.756;2022-11-15T01:45:51;13.00;99.90
2477;DHT22;1249;51.270;6.756;2022-11-15T01:48:20;13.10;99.90
2477;DHT22;1249;51.270;6.756;2022-11-15T01:50:47;13.10;99.90
2477;DHT22;1249;51.270;6.756;2022-11-15T01:53:15;13.10;99.90
2477;DHT22;1249;51.270;6.756;2022-11-15T01:55:42;13.10;99.90
2477;DHT22;1249;51.270;6.756;2022-11-15T01:58:09;13.00;99.90
2477;DHT22;1249;51.270;6.756;2022-11-15T02:00:37;13.20;99.90
2477;DHT22;1249;51.270;6.756;2022-11-15T02:03:04;13.10;99.90
2477;DHT22;1249;51.270;6.756;2022-11-15T02:05:31;13.10;99.90
2477;DHT22;1249;51.270;6.756;2022-11-15T02:08:00;13.10;99.90
2477;DHT22;1249;51.270;6.756;2022-11-15T02:10:27;13.10;99.90
2477;DHT22;1249;51.270;6.756;2022-11-15T02:12:55;13.20;99.90
2477;DHT22;1249;51.270;6.756;2022-11-15T02:15:24;13.10;99.90
2477;DHT22;1249;51.270;6.756;2022-11-15T02:18:06;13.10;99.90
2477;DHT22;1249;51.270;6.756;2022-11-15T02:20:46;13.10;99.90
2477;DHT22;1249;51.270;6.756;2022-11-15T02:23:58;13.10;99.90
2477;DHT22;1249;51.270;6.756;2022-11-15T02:26:49;13.20;99.90
2477;DHT22;1249;51.270;6.756;2022-11-15T02:29:29;13.10;99.90
2477;DHT22;1249;51.270;6.756;2022-11-15T02:32:05;13.20;99.90
2477;DHT22;1249;51.270;6.756;2022-11-15T02:34:42;13.20;99.90
2477;DHT22;1249;51.270;6.756;2022-11-15T02:37:16;13.20;99.90
2477;DHT22;1249;51.270;6.756;2022-11-15T02:39:49;13.20;99.90
2477;DHT22;1249;51.270;6.756;2022-11-15T02:42:21;13.20;99.90
2477;DHT22;1249;51.270;6.756;2022-11-15T02:45:10;13.20;99.90
2477;DHT22;1249;51.270;6.756;2022-11-15T02:47:43;13.30;99.90
2477;DHT22;1249;51.270;6.756;2022-11-15T02:50:12;13.20;99.90
2477;DHT22;1249;51.270;6.756;2022-11-15T02:52:41;13.30;99.90
2477;DHT22;1249;51.270;6.756;2022-11-15T02:55:26;13.20;99.90
2477;DHT22;1249;51.270;6.756;2022-11-15T02:58:02;13.30;99.90
2477;DHT22;1249;51.270;6.756;2022-11-15T03:00:35;13.30;99.90
2477;DHT22;1249;51.270;6.756;2022-11-15T03:03:30;13.30;99.90
2477;DHT22;1249;51.270;6.756;2022-11-15T03:06:09;13.30;99.90
2477;DHT22;1249;51.270;6.756;2022-11-15T03:08:47;13.30;99.90
2477;DHT22;1249;51.270;6.756;2022-11-15T03:11:19;13.40;99.90
2477;DHT22;1249;51.270;6.756;2022-11-15T03:13:53;13.40;99.90
2477;DHT22;1249;51.270;6.756;2022-11-15T03:16:24;13.40;99.90
2477;DHT22;1249;51.270;6.756;2022-11-15T03:18:57;13.30;99.90
2477;DHT22;1249;51.270;6.756;2022-11-15T03:21:28;13.40;99.90
2477;DHT22;1249;51.270;6.756;2022-11-15T03:23:58;13.40;99.90
2477;DHT22;1249;51.270;6.756;2022-11-15T03:26:28;13.40;99.90
2477;DHT22;1249;51.270;6.756;2022-11-15T03:28:58;13.40;99.90
2477;DHT22;1249;51.270;6.756;2022-11-15T03:31:30;13.40;99.90
2477;DHT22;1249;51.270;6.756;2022-11-15T03:34:21;13.40;99.90
2477;DHT22;1249;51.270;6.756;2022-11-15T03:36:50;13.40;99.90
2477;DHT22;1249;51.270;6.756;2022-11-15T03:39:17;13.50;99.90
2477;DHT22;1249;51.270;6.756;2022-11-15T03:41:48;13.50;99.90
2477;DHT22;1249;51.270;6.756;2022-11-15T03:44:21;13.50;99.90
2477;DHT22;1249;51.270;6.756;2022-11-15T03:46:56;13.40;99.90
2477;DHT22;1249;51.270;6.756;2022-11-15T03:49:29;13.50;99.90
2477;DHT22;1249;51.270;6.756;2022-11-15T03:51:58;13.50;99.90
2477;DHT22;1249;51.270;6.756;2022-11-15T03:54:25;13.50;99.90
2477;DHT22;1249;51.270;6.756;2022-11-15T03:56:52;13.60;99.90
2477;DHT22;1249;51.270;6.756;2022-11-15T03:59:19;13.50;99.90
2477;DHT22;1249;51.270;6.756;2022-11-15T04:01:46;13.50;99.90
2477;DHT22;1249;51.270;6.756;2022-11-15T04:04:13;13.50;99.90
2477;DHT22;1249;51.270;6.756;2022-11-15T04:06:41;13.50;99.90
2477;DHT22;1249;51.270;6.756;2022-11-15T04:09:08;13.50;99.90
2477;DHT22;1249;51.270;6.756;2022-11-15T04:11:34;13.50;99.90
2477;DHT22;1249;51.270;6.756;2022-11-15T04:14:01;13.60;99.90
2477;DHT22;1249;51.270;6.756;2022-11-15T04:16:28;13.60;99.90
2477;DHT22;1249;51.270;6.756;2022-11-15T04:18:55;13.60;99.90
2477;DHT22;1249;51.270;6.756;2022-11-15T04:21:35;13.50;99.90
2477;DHT22;1249;51.270;6.756;2022-11-15T04:24:21;13.60;99.90
2477;DHT22;1249;51.270;6.756;2022-11-15T04:26:48;13.60;99.90
2477;DHT22;1249;51.270;6.756;2022-11-15T04:29:15;13.60;99.90
2477;DHT22;1249;51.270;6.756;2022-11-15T04:31:55;13.60;99.90
2477;DHT22;1249;51.270;6.756;2022-11-15T04:34:22;13.50;99.90
2477;DHT22;1249;51.270;6.756;2022-11-15T04:36:49;13.60;99.90
2477;DHT22;1249;51.270;6.756;2022-11-15T04:39:34;13.60;99.90
2477;DHT22;1249;51.270;6.756;2022-11-15T04:42:00;13.60;99.90
2477;DHT22;1249;51.270;6.756;2022-11-15T04:44:27;13.60;99.90
2477;DHT22;1249;51.270;6.756;2022-11-15T04:46:54;13.60;99.90
2477;DHT22;1249;51.270;6.756;2022-11-15T04:49:21;13.70;99.90
2477;DHT22;1249;51.270;6.756;2022-11-15T04:51:47;13.70;99.90
2477;DHT22;1249;51.270;6.756;2022-11-15T04:54:17;13.60;99.90
2477;DHT22;1249;51.270;6.756;2022-11-15T04:56:45;13.70;99.90
2477;DHT22;1249;51.270;6.756;2022-11-15T04:59:11;13.70;99.90
2477;DHT22;1249;51.270;6.756;2022-11-15T05:01:38;13.70;99.90
2477;DHT22;1249;51.270;6.756;2022-11-15T05:04:05;13.70;99.90
2477;DHT22;1249;51.270;6.756;2022-11-15T05:06:47;13.70;99.90
2477;DHT22;1249;51.270;6.756;2022-11-15T05:09:15;13.70;99.90
2477;DHT22;1249;51.270;6.756;2022-11-15T05:11:42;13.70;99.90
2477;DHT22;1249;51.270;6.756;2022-11-15T05:14:10;13.70;99.90
2477;DHT22;1249;51.270;6.756;2022-11-15T05:16:37;13.70;99.90
2477;DHT22;1249;51.270;6.756;2022-11-15T05:19:04;13.80;99.90
2477;DHT22;1249;51.270;6.756;2022-11-15T05:21:31;13.70;99.90
2477;DHT22;1249;51.270;6.756;2022-11-15T05:23:57;13.70;99.90
2477;DHT22;1249;51.270;6.756;2022-11-15T05:26:25;13.80;99.90
2477;DHT22;1249;51.270;6.756;2022-11-15T05:28:53;13.80;99.90
2477;DHT22;1249;51.270;6.756;2022-11-15T05:31:22;13.70;99.90
2477;DHT22;1249;51.270;6.756;2022-11-15T05:33:49;13.70;99.90
2477;DHT22;1249;51.270;6.756;2022-11-15T05:36:20;13.70;99.90
2477;DHT22;1249;51.270;6.756;2022-11-15T05:38:48;13.70;99.90
2477;DHT22;1249;51.270;6.756;2022-11-15T05:41:17;13.70;99.90
2477;DHT22;1249;51.270;6.756;2022-11-15T05:43:45;13.80;99.90
2477;DHT22;1249;51.270;6.756;2022-11-15T05:46:12;13.70;99.90
2477;DHT22;1249;51.270;6.756;2022-11-15T05:48:45;13.70;99.90
2477;DHT22;1249;51.270;6.756;2022-11-15T05:51:14;13.80;99.90
2477;DHT22;1249;51.270;6.756;2022-11-15T05:53:42;13.70;99.90
2477;DHT22;1249;51.270;6.756;2022-11-15T05:56:09;13.80;99.90
2477;DHT22;1249;51.270;6.756;2022-11-15T05:58:37;13.80;99.90
2477;DHT22;1249;51.270;6.756;2022-11-15T06:01:04;13.80;99.90
2477;DHT22;1249;51.270;6.756;2022-11-15T06:03:31;13.80;99.90
2477;DHT22;1249;51.270;6.756;2022-11-15T06:05:59;13.80;99.90
2477;DHT22;1249;51.270;6.756;2022-11-15T06:08:27;13.80;99.90
2477;DHT22;1249;51.270;6.756;2022-11-15T06:10:53;13.80;99.90
2477;DHT22;1249;51.270;6.756;2022-11-15T06:13:20;13.80;99.90
2477;DHT22;1249;51.270;6.756;2022-11-15T06:15:47;13.90;99.90
2477;DHT22;1249;51.270;6.756;2022-11-15T06:18:14;13.80;99.90
2477;DHT22;1249;51.270;6.756;2022-11-15T06:20:40;13.80;99.90
2477;DHT22;1249;51.270;6.756;2022-11-15T06:23:08;13.80;99.90
2477;DHT22;1249;51.270;6.756;2022-11-15T06:25:35;13.80;99.90
2477;DHT22;1249;51.270;6.756;2022-11-15T06:28:02;13.80;99.90
2477;DHT22;1249;51.270;6.756;2022-11-15T06:30:29;13.80;99.90
2477;DHT22;1249;51.270;6.756;2022-11-15T06:32:59;13.80;99.90
2477;DHT22;1249;51.270;6.756;2022-11-15T06:35:27;14.00;99.90
2477;DHT22;1249;51.270;6.756;2022-11-15T06:37:53;14.20;99.90
2477;DHT22;1249;51.270;6.756;2022-11-15T06:40:22;14.30;99.90
2477;DHT22;1249;51.270;6.756;2022-11-15T06:42:48;14.40;99.90
2477;DHT22;1249;51.270;6.756;2022-11-15T06:45:15;14.60;99.90
2477;DHT22;1249;51.270;6.756;2022-11-15T06:47:44;14.70;99.90
2477;DHT22;1249;51.270;6.756;2022-11-15T06:50:12;14.80;99.90
2477;DHT22;1249;51.270;6.756;2022-11-15T06:52:38;14.90;99.90
2477;DHT22;1249;51.270;6.756;2022-11-15T06:55:06;15.00;99.90
2477;DHT22;1249;51.270;6.756;2022-11-15T06:57:35;15.10;99.90
2477;DHT22;1249;51.270;6.756;2022-11-15T07:00:03;15.10;99.90
2477;DHT22;1249;51.270;6.756;2022-11-15T07:02:30;15.20;99.90
2477;DHT22;1249;51.270;6.756;2022-11-15T07:04:57;15.20;99.90
2477;DHT22;1249;51.270;6.756;2022-11-15T07:07:24;15.30;99.90
2477;DHT22;1249;51.270;6.756;2022-11-15T07:09:50;15.20;99.90
2477;DHT22;1249;51.270;6.756;2022-11-15T07:12:17;15.30;99.90
2477;DHT22;1249;51.270;6.756;2022-11-15T07:14:45;15.40;99.90
2477;DHT22;1249;51.270;6.756;2022-11-15T07:17:12;15.40;99.90
2477;DHT22;1249;51.270;6.756;2022-11-15T07:19:38;15.40;99.90
2477;DHT22;1249;51.270;6.756;2022-11-15T07:22:05;15.40;99.90
2477;DHT22;1249;51.270;6.756;2022-11-15T07:24:32;15.50;99.90
2477;DHT22;1249;51.270;6.756;2022-11-15T07:26:59;15.50;99.90
2477;DHT22;1249;51.270;6.756;2022-11-15T07:29:26;15.50;99.90
2477;DHT22;1249;51.270;6.756;2022-11-15T07:31:54;15.50;99.90
2477;DHT22;1249;51.270;6.756;2022-11-15T07:34:21;15.50;99.90
2477;DHT22;1249;51.270;6.756;2022-11-15T07:36:49;15.60;99.90
2477;DHT22;1249;51.270;6.756;2022-11-15T07:39:16;15.60;99.90
2477;DHT22;1249;51.270;6.756;2022-11-15T07:41:42;15.60;99.90
2477;DHT22;1249;51.270;6.756;2022-11-15T07:44:10;15.60;99.90
2477;DHT22;1249;51.270;6.756;2022-11-15T07:46:36;15.70;99.90
2477;DHT22;1249;51.270;6.756;2022-11-15T07:49:05;15.70;99.90
2477;DHT22;1249;51.270;6.756;2022-11-15T07:51:31;15.70;99.90
2477;DHT22;1249;51.270;6.756;2022-11-15T07:53:58;15.80;99.90
2477;DHT22;1249;51.270;6.756;2022-11-15T07:56:25;15.70;99.90
2477;DHT22;1249;51.270;6.756;2022-11-15T07:58:51;15.70;99.90
2477;DHT22;1249;51.270;6.756;2022-11-15T08:01:18;15.80;99.90
2477;DHT22;1249;51.270;6.756;2022-11-15T08:03:45;15.80;99.90
2477;DHT22;1249;51.270;6.756;2022-11-15T08:06:13;15.80;99.90
2477;DHT22;1249;51.270;6.756;2022-11-15T08:08:40;15.90;99.90
2477;DHT22;1249;51.270;6.756;2022-11-15T08:11:07;15.80;99.90
2477;DHT22;1249;51.270;6.756;2022-11-15T08:13:33;15.80;99.90
2477;DHT22;1249;51.270;6.756;2022-11-15T08:16:02;15.90;99.90
2477;DHT22;1249;51.270;6.756;2022-11-15T08:18:30;15.90;99.90
2477;DHT22;1249;51.270;6.756;2022-11-15T08:20:59;16.00;99.90
2477;DHT22;1249;51.270;6.756;2022-11-15T08:23:27;16.00;99.90
2477;DHT22;1249;51.270;6.756;2022-11-15T08:26:20;16.10;99.90
2477;DHT22;1249;51.270;6.756;2022-11-15T08:29:13;16.10;99.90
2477;DHT22;1249;51.270;6.756;2022-11-15T08:31:40;16.10;99.90
2477;DHT22;1249;51.270;6.756;2022-11-15T08:34:15;16.20;99.90
2477;DHT22;1249;51.270;6.756;2022-11-15T08:36:42;16.20;99.90
2477;DHT22;1249;51.270;6.756;2022-11-15T08:42:28;16.20;99.90
2477;DHT22;1249;51.270;6.756;2022-11-15T08:45:06;16.30;99.90
2477;DHT22;1249;51.270;6.756;2022-11-15T08:47:33;16.30;99.90
2477;DHT22;1249;51.270;6.756;2022-11-15T08:54:03;16.50;99.90
2477;DHT22;1249;51.270;6.756;2022-11-15T09:03:22;16.70;99.90
2477;DHT22;1249;51.270;6.756;2022-11-15T09:06:15;16.70;99.90
2477;DHT22;1249;51.270;6.756;2022-11-15T09:08:42;16.70;99.90
2477;DHT22;1249;51.270;6.756;2022-11-15T09:11:09;16.80;99.90
2477;DHT22;1249;51.270;6.756;2022-11-15T09:16:32;16.90;99.90
2477;DHT22;1249;51.270;6.756;2022-11-15T09:19:08;16.90;99.90
2477;DHT22;1249;51.270;6.756;2022-11-15T09:22:47;17.00;99.90
2477;DHT22;1249;51.270;6.756;2022-11-15T09:24:57;17.00;99.90
2477;DHT22;1249;51.270;6.756;2022-11-15T09:30:51;17.00;99.90
2477;DHT22;1249;51.270;6.756;2022-11-15T09:33:57;16.90;99.90
2477;DHT22;1249;51.270;6.756;2022-11-15T09:36:49;17.00;99.90
2477;DHT22;1249;51.270;6.756;2022-11-15T09:39:21;16.90;99.90
2477;DHT22;1249;51.270;6.756;2022-11-15T09:49:09;17.20;99.90
2477;DHT22;1249;51.270;6.756;2022-11-15T09:51:45;17.00;99.90
2477;DHT22;1249;51.270;6.756;2022-11-15T09:54:37;17.00;99.90
2477;DHT22;1249;51.270;6.756;2022-11-15T10:04:25;17.30;99.90
2477;DHT22;1249;51.270;6.756;2022-11-15T10:06:57;17.30;99.90
2477;DHT22;1249;51.270;6.756;2022-11-15T10:09:38;17.40;99.90
2477;DHT22;1249;51.270;6.756;2022-11-15T10:12:15;17.20;99.90
2477;DHT22;1249;51.270;6.756;2022-11-15T10:14:46;17.10;99.90
2477;DHT22;1249;51.270;6.756;2022-11-15T10:17:53;17.10;99.90
2477;DHT22;1249;51.270;6.756;2022-11-15T10:23:53;17.00;99.90
2477;DHT22;1249;51.270;6.756;2022-11-15T10:26:35;17.30;99.90
2477;DHT22;1249;51.270;6.756;2022-11-15T10:29:02;17.70;99.90
2477;DHT22;1249;51.270;6.756;2022-11-15T10:31:32;18.20;99.90
2477;DHT22;1249;51.270;6.756;2022-11-15T10:34:18;18.70;99.90
2477;DHT22;1249;51.270;6.756;2022-11-15T10:36:55;19.20;99.90
2477;DHT22;1249;51.270;6.756;2022-11-15T10:39:23;19.50;99.90
2477;DHT22;1249;51.270;6.756;2022-11-15T10:41:51;19.90;99.90
2477;DHT22;1249;51.270;6.756;2022-11-15T10:44:24;20.10;99.90
2477;DHT22;1249;51.270;6.756;2022-11-15T10:47:06;20.10;99.90
2477;DHT22;1249;51.270;6.756;2022-11-15T10:49:34;19.90;99.90
2477;DHT22;1249;51.270;6.756;2022-11-15T10:52:04;19.70;99.90
2477;DHT22;1249;51.270;6.756;2022-11-15T10:54:41;19.60;99.90
2477;DHT22;1249;51.270;6.756;2022-11-15T10:57:13;19.70;99.90
2477;DHT22;1249;51.270;6.756;2022-11-15T10:59:45;19.80;99.90
2477;DHT22;1249;51.270;6.756;2022-11-15T11:02:28;20.00;99.90
2477;DHT22;1249;51.270;6.756;2022-11-15T11:04:55;20.20;99.90
2477;DHT22;1249;51.270;6.756;2022-11-15T11:07:24;20.50;99.90
2477;DHT22;1249;51.270;6.756;2022-11-15T11:09:58;20.60;99.90
2477;DHT22;1249;51.270;6.756;2022-11-15T11:12:30;20.70;99.90
2477;DHT22;1249;51.270;6.756;2022-11-15T11:14:58;20.70;99.90
2477;DHT22;1249;51.270;6.756;2022-11-15T11:17:32;20.90;99.90
2477;DHT22;1249;51.270;6.756;2022-11-15T11:20:09;21.00;99.90
2477;DHT22;1249;51.270;6.756;2022-11-15T11:22:41;21.10;99.90
2477;DHT22;1249;51.270;6.756;2022-11-15T11:25:21;21.20;99.90
2477;DHT22;1249;51.270;6.756;2022-11-15T11:28:00;21.40;99.90
2477;DHT22;1249;51.270;6.756;2022-11-15T11:30:40;21.50;99.90
2477;DHT22;1249;51.270;6.756;2022-11-15T11:33:14;21.50;99.90
2477;DHT22;1249;51.270;6.756;2022-11-15T11:35:50;21.40;99.90
2477;DHT22;1249;51.270;6.756;2022-11-15T11:38:34;21.10;99.90
2477;DHT22;1249;51.270;6.756;2022-11-15T11:41:10;20.90;99.90
2477;DHT22;1249;51.270;6.756;2022-11-15T11:43:58;20.70;99.90
2477;DHT22;1249;51.270;6.756;2022-11-15T11:46:47;20.50;99.90
2477;DHT22;1249;51.270;6.756;2022-11-15T11:49:20;20.20;99.90
2477;DHT22;1249;51.270;6.756;2022-11-15T11:51:51;19.90;99.90
2477;DHT22;1249;51.270;6.756;2022-11-15T11:54:22;19.70;99.90
2477;DHT22;1249;51.270;6.756;2022-11-15T11:56:53;19.60;99.90
2477;DHT22;1249;51.270;6.756;2022-11-15T11:59:31;19.60;99.90
2477;DHT22;1249;51.270;6.756;2022-11-15T12:02:07;19.60;99.90
2477;DHT22;1249;51.270;6.756;2022-11-15T12:04:40;19.70;99.90
2477;DHT22;1249;51.270;6.756;2022-11-15T12:07:11;19.80;99.90
2477;DHT22;1249;51.270;6.756;2022-11-15T12:09:44;19.90;99.90
2477;DHT22;1249;51.270;6.756;2022-11-15T12:12:18;19.80;99.90
2477;DHT22;1249;51.270;6.756;2022-11-15T12:14:50;19.80;99.90
2477;DHT22;1249;51.270;6.756;2022-11-15T12:17:23;19.80;99.90
2477;DHT22;1249;51.270;6.756;2022-11-15T12:19:51;19.90;99.90
2477;DHT22;1249;51.270;6.756;2022-11-15T12:22:21;20.00;99.90
2477;DHT22;1249;51.270;6.756;2022-11-15T12:24:51;20.00;99.90
2477;DHT22;1249;51.270;6.756;2022-11-15T12:27:25;20.10;99.90
2477;DHT22;1249;51.270;6.756;2022-11-15T12:29:58;20.10;99.90
2477;DHT22;1249;51.270;6.756;2022-11-15T12:32:28;20.20;99.90
2477;DHT22;1249;51.270;6.756;2022-11-15T12:34:56;20.20;99.90
2477;DHT22;1249;51.270;6.756;2022-11-15T12:37:34;20.20;99.90
2477;DHT22;1249;51.270;6.756;2022-11-15T12:40:22;20.20;99.90
2477;DHT22;1249;51.270;6.756;2022-11-15T12:45:53;20.30;99.90
2477;DHT22;1249;51.270;6.756;2022-11-15T12:54:55;20.50;99.90
2477;DHT22;1249;51.270;6.756;2022-11-15T13:00:42;20.50;97.10
2477;DHT22;1249;51.270;6.756;2022-11-15T13:03:29;20.20;97.50
2477;DHT22;1249;51.270;6.756;2022-11-15T13:06:00;20.20;99.80
2477;DHT22;1249;51.270;6.756;2022-11-15T13:08:49;20.20;98.90
2477;DHT22;1249;51.270;6.756;2022-11-15T13:11:47;20.20;99.60
2477;DHT22;1249;51.270;6.756;2022-11-15T13:14:50;19.90;98.60
2477;DHT22;1249;51.270;6.756;2022-11-15T13:17:32;19.80;99.90
2477;DHT22;1249;51.270;6.756;2022-11-15T13:23:01;19.50;99.90
2477;DHT22;1249;51.270;6.756;2022-11-15T13:25:56;19.40;99.90
2477;DHT22;1249;51.270;6.756;2022-11-15T13:28:32;19.30;99.90
2477;DHT22;1249;51.270;6.756;2022-11-15T13:31:01;19.20;99.90
2477;DHT22;1249;51.270;6.756;2022-11-15T13:33:31;19.10;99.90
2477;DHT22;1249;51.270;6.756;2022-11-15T13:36:03;19.00;99.90
2477;DHT22;1249;51.270;6.756;2022-11-15T13:38:33;19.00;99.90
2477;DHT22;1249;51.270;6.756;2022-11-15T13:41:11;18.90;99.90
2477;DHT22;1249;51.270;6.756;2022-11-15T13:43:40;18.60;99.80
2477;DHT22;1249;51.270;6.756;2022-11-15T13:46:12;18.70;99.90
2477;DHT22;1249;51.270;6.756;2022-11-15T13:48:40;18.80;99.90
2477;DHT22;1249;51.270;6.756;2022-11-15T13:51:20;18.90;99.90
2477;DHT22;1249;51.270;6.756;2022-11-15T13:53:51;18.80;99.90
2477;DHT22;1249;51.270;6.756;2022-11-15T13:56:20;18.70;99.90
2477;DHT22;1249;51.270;6.756;2022-11-15T13:58:47;18.80;99.90
2477;DHT22;1249;51.270;6.756;2022-11-15T14:01:17;18.70;99.90
2477;DHT22;1249;51.270;6.756;2022-11-15T14:03:52;18.60;99.90
2477;DHT22;1249;51.270;6.756;2022-11-15T14:06:22;18.60;99.90
2477;DHT22;1249;51.270;6.756;2022-11-15T14:09:02;18.40;99.90
2477;DHT22;1249;51.270;6.756;2022-11-15T14:11:29;18.40;99.90
2477;DHT22;1249;51.270;6.756;2022-11-15T14:14:13;18.30;99.90
2477;DHT22;1249;51.270;6.756;2022-11-15T14:16:42;18.30;99.90
2477;DHT22;1249;51.270;6.756;2022-11-15T14:19:11;18.30;99.90
2477;DHT22;1249;51.270;6.756;2022-11-15T14:22:16;18.20;99.30
2477;DHT22;1249;51.270;6.756;2022-11-15T14:24:50;18.30;99.90
2477;DHT22;1249;51.270;6.756;2022-11-15T14:27:30;18.10;99.90
2477;DHT22;1249;51.270;6.756;2022-11-15T14:29:57;18.00;99.90
2477;DHT22;1249;51.270;6.756;2022-11-15T14:32:25;18.00;99.90
2477;DHT22;1249;51.270;6.756;2022-11-15T14:34:55;17.90;99.90
2477;DHT22;1249;51.270;6.756;2022-11-15T14:37:25;18.00;99.90
2477;DHT22;1249;51.270;6.756;2022-11-15T14:39:52;18.00;99.90
2477;DHT22;1249;51.270;6.756;2022-11-15T14:42:20;17.90;99.90
2477;DHT22;1249;51.270;6.756;2022-11-15T14:44:47;17.70;99.60
2477;DHT22;1249;51.270;6.756;2022-11-15T14:47:14;17.60;99.90
2477;DHT22;1249;51.270;6.756;2022-11-15T14:49:41;17.60;99.20
2477;DHT22;1249;51.270;6.756;2022-11-15T14:52:22;17.50;99.80
2477;DHT22;1249;51.270;6.756;2022-11-15T14:54:51;17.40;99.70
2477;DHT22;1249;51.270;6.756;2022-11-15T14:57:18;17.40;99.90
2477;DHT22;1249;51.270;6.756;2022-11-15T14:59:44;17.30;99.90
2477;DHT22;1249;51.270;6.756;2022-11-15T15:02:16;17.30;99.80
2477;DHT22;1249;51.270;6.756;2022-11-15T15:04:43;17.20;99.60
2477;DHT22;1249;51.270;6.756;2022-11-15T15:07:09;17.20;99.90
2477;DHT22;1249;51.270;6.756;2022-11-15T15:09:36;17.20;99.90
2477;DHT22;1249;51.270;6.756;2022-11-15T15:12:05;17.00;99.70
2477;DHT22;1249;51.270;6.756;2022-11-15T15:14:33;16.90;99.90
2477;DHT22;1249;51.270;6.756;2022-11-15T15:16:59;16.90;99.90
2477;DHT22;1249;51.270;6.756;2022-11-15T15:19:27;17.00;99.90
2477;DHT22;1249;51.270;6.756;2022-11-15T15:21:53;16.90;99.90
2477;DHT22;1249;51.270;6.756;2022-11-15T15:24:20;16.90;99.90
2477;DHT22;1249;51.270;6.756;2022-11-15T15:26:47;16.80;99.90
2477;DHT22;1249;51.270;6.756;2022-11-15T15:29:15;16.70;99.90
2477;DHT22;1249;51.270;6.756;2022-11-15T15:31:41;16.90;99.90
2477;DHT22;1249;51.270;6.756;2022-11-15T15:34:08;16.80;99.90
2477;DHT22;1249;51.270;6.756;2022-11-15T15:36:35;16.70;99.90
2477;DHT22;1249;51.270;6.756;2022-11-15T15:39:02;16.70;99.90
2477;DHT22;1249;51.270;6.756;2022-11-15T15:41:29;16.70;99.90
2477;DHT22;1249;51.270;6.756;2022-11-15T15:43:55;16.70;99.90
2477;DHT22;1249;51.270;6.756;2022-11-15T15:46:24;16.60;99.90
2477;DHT22;1249;51.270;6.756;2022-11-15T15:48:51;16.60;99.90
2477;DHT22;1249;51.270;6.756;2022-11-15T15:51:18;16.50;99.90
2477;DHT22;1249;51.270;6.756;2022-11-15T15:53:44;16.40;99.90
2477;DHT22;1249;51.270;6.756;2022-11-15T15:56:11;16.40;99.90
2477;DHT22;1249;51.270;6.756;2022-11-15T15:58:38;16.50;99.90
2477;DHT22;1249;51.270;6.756;2022-11-15T16:01:05;16.40;99.90
2477;DHT22;1249;51.270;6.756;2022-11-15T16:03:33;16.30;99.90
2477;DHT22;1249;51.270;6.756;2022-11-15T16:05:59;16.30;99.90
2477;DHT22;1249;51.270;6.756;2022-11-15T16:08:26;16.30;99.90
2477;DHT22;1249;51.270;6.756;2022-11-15T16:10:55;16.10;99.90
2477;DHT22;1249;51.270;6.756;2022-11-15T16:13:21;16.20;99.90
2477;DHT22;1249;51.270;6.756;2022-11-15T16:15:52;16.20;99.90
2477;DHT22;1249;51.270;6.756;2022-11-15T16:18:19;16.20;99.90
2477;DHT22;1249;51.270;6.756;2022-11-15T16:20:48;16.30;99.90
2477;DHT22;1249;51.270;6.756;2022-11-15T16:23:18;16.50;99.90
2477;DHT22;1249;51.270;6.756;2022-11-15T16:25:48;16.50;99.90
2477;DHT22;1249;51.270;6.756;2022-11-15T16:28:17;16.50;99.90
2477;DHT22;1249;51.270;6.756;2022-11-15T16:30:45;16.60;99.90
2477;DHT22;1249;51.270;6.756;2022-11-15T16:33:11;16.60;99.90
2477;DHT22;1249;51.270;6.756;2022-11-15T16:35:38;16.60;99.90
2477;DHT22;1249;51.270;6.756;2022-11-15T16:38:08;16.50;99.90
2477;DHT22;1249;51.270;6.756;2022-11-15T16:40:39;16.50;99.90
2477;DHT22;1249;51.270;6.756;2022-11-15T16:43:06;16.50;99.90
2477;DHT22;1249;51.270;6.756;2022-11-15T16:45:34;16.50;99.90
2477;DHT22;1249;51.270;6.756;2022-11-15T16:48:01;16.50;99.90
2477;DHT22;1249;51.270;6.756;2022-11-15T16:50:29;16.50;99.90
2477;DHT22;1249;51.270;6.756;2022-11-15T16:52:58;16.40;99.90
2477;DHT22;1249;51.270;6.756;2022-11-15T16:55:28;16.40;99.90
2477;DHT22;1249;51.270;6.756;2022-11-15T16:57:55;16.40;99.90
2477;DHT22;1249;51.270;6.756;2022-11-15T17:00:23;16.40;99.90
2477;DHT22;1249;51.270;6.756;2022-11-15T17:02:51;16.40;99.90
2477;DHT22;1249;51.270;6.756;2022-11-15T17:05:19;16.40;99.90
2477;DHT22;1249;51.270;6.756;2022-11-15T17:07:47;16.40;99.90
2477;DHT22;1249;51.270;6.756;2022-11-15T17:10:15;16.40;99.90
2477;DHT22;1249;51.270;6.756;2022-11-15T17:12:43;16.40;99.90
2477;DHT22;1249;51.270;6.756;2022-11-15T17:15:11;16.40;99.90
2477;DHT22;1249;51.270;6.756;2022-11-15T17:17:39;16.40;99.90
2477;DHT22;1249;51.270;6.756;2022-11-15T17:20:09;16.40;99.90